sensor_id;sensor_type;location;lat;lon;timestamp;temperature;humidity
670;DHT22;317;48.758;9.302;2022-08-11T00:00:58;20.00;48.40
670;DHT22;317;48.758;9.302;2022-08-11T00:03:26;20.00;48.60
670;DHT22;317;48.758;9.302;2022-08-11T00:05:54;19.90;49.10
670;DHT22;317;48.758;9.302;2022-08-11T00:08:23;19.80;49.20
670;DHT22;317;48.758;9.302;2022-08-11T00:10:53;19.80;49.30
670;DHT22;317;48.758;9.302;2022-08-11T00:13:22;19.70;49.50
670;DHT22;317;48.758;9.302;2022-08-11T00:15:56;19.60;50.20
670;DHT22;317;48.758;9.302;2022-08-11T00:18:24;19.60;50.90
670;DHT22;317;48.758;9.302;2022-08-11T00:20:57;19.60;51.80
670;DHT22;317;48.758;9.302;2022-08-11T00:23:24;19.50;52.20
670;DHT22;317;48.758;9.302;2022-08-11T00:25:53;19.40;53.30
670;DHT22;317;48.758;9.302;2022-08-11T00:28:25;19.30;53.50
670;DHT22;317;48.758;9.302;2022-08-11T00:30:53;19.30;53.40
670;DHT22;317;48.758;9.302;2022-08-11T00:33:23;19.20;53.90
670;DHT22;317;48.758;9.302;2022-08-11T00:35:51;19.20;53.60
670;DHT22;317;48.758;9.302;2022-08-11T00:38:25;19.20;54.20
670;DHT22;317;48.758;9.302;2022-08-11T00:41:03;19.10;54.70
670;DHT22;317;48.758;9.302;2022-08-11T00:43:41;19.10;55.50
670;DHT22;317;48.758;9.302;2022-08-11T00:46:18;19.00;56.40
670;DHT22;317;48.758;9.302;2022-08-11T00:48:59;19.00;56.80
670;DHT22;317;48.758;9.302;2022-08-11T00:51:42;18.90;57.60
670;DHT22;317;48.758;9.302;2022-08-11T00:54:31;18.70;58.60
670;DHT22;317;48.758;9.302;2022-08-11T00:57:25;18.70;59.20
670;DHT22;317;48.758;9.302;2022-08-11T01:00:13;18.60;61.40
670;DHT22;317;48.758;9.302;2022-08-11T01:03:06;18.60;61.70
670;DHT22;317;48.758;9.302;2022-08-11T01:05:55;18.50;62.30
670;DHT22;317;48.758;9.302;2022-08-11T01:08:54;18.50;62.90
670;DHT22;317;48.758;9.302;2022-08-11T01:11:51;18.40;64.30
670;DHT22;317;48.758;9.302;2022-08-11T01:14:37;18.40;64.40
670;DHT22;317;48.758;9.302;2022-08-11T01:17:41;18.30;63.90
670;DHT22;317;48.758;9.302;2022-08-11T01:20:46;18.30;65.70
670;DHT22;317;48.758;9.302;2022-08-11T01:33:26;18.10;70.30
670;DHT22;317;48.758;9.302;2022-08-11T01:39:48;18.00;72.70
670;DHT22;317;48.758;9.302;2022-08-11T01:42:47;17.90;73.30
670;DHT22;317;48.758;9.302;2022-08-11T01:45:40;17.90;74.60
670;DHT22;317;48.758;9.302;2022-08-11T01:48:15;17.90;75.80
670;DHT22;317;48.758;9.302;2022-08-11T01:50:56;17.80;77.00
670;DHT22;317;48.758;9.302;2022-08-11T01:53:36;17.80;78.00
670;DHT22;317;48.758;9.302;2022-08-11T01:56:26;17.70;78.40
670;DHT22;317;48.758;9.302;2022-08-11T01:59:15;17.60;80.00
670;DHT22;317;48.758;9.302;2022-08-11T02:01:53;17.60;80.80
670;DHT22;317;48.758;9.302;2022-08-11T02:04:30;17.60;81.70
670;DHT22;317;48.758;9.302;2022-08-11T02:07:03;17.60;81.90
670;DHT22;317;48.758;9.302;2022-08-11T02:09:49;17.50;83.00
670;DHT22;317;48.758;9.302;2022-08-11T02:12:43;17.50;84.00
670;DHT22;317;48.758;9.302;2022-08-11T02:15:17;17.40;84.70
670;DHT22;317;48.758;9.302;2022-08-11T02:17:52;17.40;86.00
670;DHT22;317;48.758;9.302;2022-08-11T02:20:26;17.40;86.20
670;DHT22;317;48.758;9.302;2022-08-11T02:23:24;17.40;86.60
670;DHT22;317;48.758;9.302;2022-08-11T02:26:17;17.40;87.50
670;DHT22;317;48.758;9.302;2022-08-11T02:28:55;17.30;88.00
670;DHT22;317;48.758;9.302;2022-08-11T02:31:37;17.30;88.30
670;DHT22;317;48.758;9.302;2022-08-11T02:34:34;17.30;89.30
670;DHT22;317;48.758;9.302;2022-08-11T02:37:13;17.30;89.40
670;DHT22;317;48.758;9.302;2022-08-11T02:39:49;17.20;89.80
670;DHT22;317;48.758;9.302;2022-08-11T02:42:27;17.20;90.80
670;DHT22;317;48.758;9.302;2022-08-11T02:45:27;17.20;91.00
670;DHT22;317;48.758;9.302;2022-08-11T02:48:01;17.20;90.90
670;DHT22;317;48.758;9.302;2022-08-11T02:50:55;17.20;91.60
670;DHT22;317;48.758;9.302;2022-08-11T02:53:29;17.10;91.80
670;DHT22;317;48.758;9.302;2022-08-11T02:56:04;17.10;92.70
670;DHT22;317;48.758;9.302;2022-08-11T02:58:40;17.10;92.60
670;DHT22;317;48.758;9.302;2022-08-11T03:01:15;17.00;93.10
670;DHT22;317;48.758;9.302;2022-08-11T03:03:50;17.00;93.70
670;DHT22;317;48.758;9.302;2022-08-11T03:06:26;17.00;93.60
670;DHT22;317;48.758;9.302;2022-08-11T03:09:01;17.00;93.90
670;DHT22;317;48.758;9.302;2022-08-11T03:11:48;16.90;94.60
670;DHT22;317;48.758;9.302;2022-08-11T03:14:43;16.90;94.50
670;DHT22;317;48.758;9.302;2022-08-11T03:17:32;16.90;95.00
670;DHT22;317;48.758;9.302;2022-08-11T03:23:06;16.80;95.80
670;DHT22;317;48.758;9.302;2022-08-11T03:25:43;16.70;96.40
670;DHT22;317;48.758;9.302;2022-08-11T03:28:25;16.70;96.40
670;DHT22;317;48.758;9.302;2022-08-11T03:31:06;16.70;96.80
670;DHT22;317;48.758;9.302;2022-08-11T03:33:40;16.60;97.00
670;DHT22;317;48.758;9.302;2022-08-11T03:40:10;16.60;98.10
670;DHT22;317;48.758;9.302;2022-08-11T03:42:44;16.50;98.40
670;DHT22;317;48.758;9.302;2022-08-11T03:45:21;16.50;98.70
670;DHT22;317;48.758;9.302;2022-08-11T03:48:03;16.50;99.20
670;DHT22;317;48.758;9.302;2022-08-11T03:50:53;16.50;99.30
670;DHT22;317;48.758;9.302;2022-08-11T03:53:34;16.40;99.90
670;DHT22;317;48.758;9.302;2022-08-11T03:59:32;16.40;99.90
670;DHT22;317;48.758;9.302;2022-08-11T04:02:25;16.40;99.90
670;DHT22;317;48.758;9.302;2022-08-11T04:05:35;16.40;99.90
670;DHT22;317;48.758;9.302;2022-08-11T04:08:25;16.30;99.90
670;DHT22;317;48.758;9.302;2022-08-11T04:11:19;16.30;99.90
670;DHT22;317;48.758;9.302;2022-08-11T04:17:32;16.40;99.90
670;DHT22;317;48.758;9.302;2022-08-11T04:20:18;16.40;99.90
670;DHT22;317;48.758;9.302;2022-08-11T04:23:09;16.30;99.90
670;DHT22;317;48.758;9.302;2022-08-11T04:26:04;16.30;99.90
670;DHT22;317;48.758;9.302;2022-08-11T04:28:48;16.30;99.90
670;DHT22;317;48.758;9.302;2022-08-11T04:31:33;16.40;99.90
670;DHT22;317;48.758;9.302;2022-08-11T04:34:39;16.30;99.90
670;DHT22;317;48.758;9.302;2022-08-11T04:37:11;16.40;99.90
670;DHT22;317;48.758;9.302;2022-08-11T04:43:24;16.30;99.90
670;DHT22;317;48.758;9.302;2022-08-11T04:46:13;16.40;99.90
670;DHT22;317;48.758;9.302;2022-08-11T04:49:12;16.40;99.90
670;DHT22;317;48.758;9.302;2022-08-11T04:52:22;16.50;99.90
670;DHT22;317;48.758;9.302;2022-08-11T04:55:53;16.40;99.90
670;DHT22;317;48.758;9.302;2022-08-11T04:58:51;16.50;99.90
670;DHT22;317;48.758;9.302;2022-08-11T05:02:04;16.50;99.90
670;DHT22;317;48.758;9.302;2022-08-11T05:04:55;16.60;99.90
670;DHT22;317;48.758;9.302;2022-08-11T05:11:57;16.70;99.90
670;DHT22;317;48.758;9.302;2022-08-11T05:14:33;16.70;99.90
670;DHT22;317;48.758;9.302;2022-08-11T05:17:34;16.80;99.90
670;DHT22;317;48.758;9.302;2022-08-11T05:20:20;16.90;99.90
670;DHT22;317;48.758;9.302;2022-08-11T05:23:08;16.90;99.90
670;DHT22;317;48.758;9.302;2022-08-11T05:25:56;17.00;99.90
670;DHT22;317;48.758;9.302;2022-08-11T05:28:49;17.00;99.90
670;DHT22;317;48.758;9.302;2022-08-11T05:31:38;17.10;99.90
670;DHT22;317;48.758;9.302;2022-08-11T05:34:26;17.20;99.90
670;DHT22;317;48.758;9.302;2022-08-11T05:37:19;17.30;99.90
670;DHT22;317;48.758;9.302;2022-08-11T05:39:50;17.40;99.90
670;DHT22;317;48.758;9.302;2022-08-11T05:42:41;17.50;99.90
670;DHT22;317;48.758;9.302;2022-08-11T05:45:27;17.60;99.90
670;DHT22;317;48.758;9.302;2022-08-11T05:48:13;17.70;99.90
670;DHT22;317;48.758;9.302;2022-08-11T05:50:58;17.80;99.90
670;DHT22;317;48.758;9.302;2022-08-11T05:53:51;17.90;99.90
670;DHT22;317;48.758;9.302;2022-08-11T05:56:43;18.00;99.90
670;DHT22;317;48.758;9.302;2022-08-11T05:59:15;18.10;99.90
670;DHT22;317;48.758;9.302;2022-08-11T06:01:44;18.20;99.90
670;DHT22;317;48.758;9.302;2022-08-11T06:04:16;18.30;99.90
670;DHT22;317;48.758;9.302;2022-08-11T06:06:49;18.50;99.90
670;DHT22;317;48.758;9.302;2022-08-11T06:09:22;18.60;99.90
670;DHT22;317;48.758;9.302;2022-08-11T06:11:50;18.70;99.50
670;DHT22;317;48.758;9.302;2022-08-11T06:14:18;18.80;99.10
670;DHT22;317;48.758;9.302;2022-08-11T06:16:48;18.90;99.10
670;DHT22;317;48.758;9.302;2022-08-11T06:19:16;19.00;98.30
670;DHT22;317;48.758;9.302;2022-08-11T06:21:46;19.10;98.30
670;DHT22;317;48.758;9.302;2022-08-11T06:24:14;19.20;96.80
670;DHT22;317;48.758;9.302;2022-08-11T06:26:47;19.30;95.90
670;DHT22;317;48.758;9.302;2022-08-11T06:29:16;19.50;95.90
670;DHT22;317;48.758;9.302;2022-08-11T06:31:52;19.60;95.70
670;DHT22;317;48.758;9.302;2022-08-11T06:34:30;19.70;94.90
670;DHT22;317;48.758;9.302;2022-08-11T06:37:09;19.80;94.70
670;DHT22;317;48.758;9.302;2022-08-11T06:39:46;20.00;94.10
670;DHT22;317;48.758;9.302;2022-08-11T06:42:21;20.10;93.30
670;DHT22;317;48.758;9.302;2022-08-11T06:44:59;20.20;92.70
670;DHT22;317;48.758;9.302;2022-08-11T06:47:31;20.40;91.90
670;DHT22;317;48.758;9.302;2022-08-11T06:49:58;20.50;91.10
670;DHT22;317;48.758;9.302;2022-08-11T06:52:40;20.60;90.60
670;DHT22;317;48.758;9.302;2022-08-11T06:55:10;20.70;90.40
670;DHT22;317;48.758;9.302;2022-08-11T06:57:38;20.90;90.40
670;DHT22;317;48.758;9.302;2022-08-11T07:00:24;21.00;90.10
670;DHT22;317;48.758;9.302;2022-08-11T07:02:58;21.20;88.60
670;DHT22;317;48.758;9.302;2022-08-11T07:05:36;21.30;88.00
670;DHT22;317;48.758;9.302;2022-08-11T07:11:50;21.60;86.70
670;DHT22;317;48.758;9.302;2022-08-11T07:14:46;21.70;85.00
670;DHT22;317;48.758;9.302;2022-08-11T07:17:41;21.90;84.50
670;DHT22;317;48.758;9.302;2022-08-11T07:20:16;22.00;83.80
670;DHT22;317;48.758;9.302;2022-08-11T07:23:02;22.10;82.50
670;DHT22;317;48.758;9.302;2022-08-11T07:25:52;22.20;82.70
670;DHT22;317;48.758;9.302;2022-08-11T07:28:41;22.30;82.60
670;DHT22;317;48.758;9.302;2022-08-11T07:31:29;22.50;82.50
670;DHT22;317;48.758;9.302;2022-08-11T07:34:05;22.60;81.40
670;DHT22;317;48.758;9.302;2022-08-11T07:36:39;22.70;79.70
670;DHT22;317;48.758;9.302;2022-08-11T07:39:09;22.80;80.10
670;DHT22;317;48.758;9.302;2022-08-11T07:41:38;22.90;79.00
670;DHT22;317;48.758;9.302;2022-08-11T07:44:05;23.00;78.60
670;DHT22;317;48.758;9.302;2022-08-11T07:46:38;23.20;77.80
670;DHT22;317;48.758;9.302;2022-08-11T07:49:24;23.20;76.50
670;DHT22;317;48.758;9.302;2022-08-11T07:52:11;23.40;77.60
670;DHT22;317;48.758;9.302;2022-08-11T07:54:55;23.50;77.10
670;DHT22;317;48.758;9.302;2022-08-11T07:57:24;23.60;76.60
670;DHT22;317;48.758;9.302;2022-08-11T08:00:10;23.70;76.40
670;DHT22;317;48.758;9.302;2022-08-11T08:02:55;23.90;75.80
670;DHT22;317;48.758;9.302;2022-08-11T08:05:41;24.00;75.30
670;DHT22;317;48.758;9.302;2022-08-11T08:08:27;24.10;74.60
670;DHT22;317;48.758;9.302;2022-08-11T08:11:13;24.20;73.00
670;DHT22;317;48.758;9.302;2022-08-11T08:13:58;24.30;72.60
670;DHT22;317;48.758;9.302;2022-08-11T08:16:43;24.40;73.00
670;DHT22;317;48.758;9.302;2022-08-11T08:19:28;24.50;72.10
670;DHT22;317;48.758;9.302;2022-08-11T08:21:57;24.60;71.10
670;DHT22;317;48.758;9.302;2022-08-11T08:24:27;24.70;70.40
670;DHT22;317;48.758;9.302;2022-08-11T08:26:54;24.80;69.90
670;DHT22;317;48.758;9.302;2022-08-11T08:29:25;24.80;68.80
670;DHT22;317;48.758;9.302;2022-08-11T08:32:10;24.90;68.20
670;DHT22;317;48.758;9.302;2022-08-11T08:34:38;25.00;68.30
670;DHT22;317;48.758;9.302;2022-08-11T08:37:07;25.10;66.90
670;DHT22;317;48.758;9.302;2022-08-11T08:39:35;25.10;66.70
670;DHT22;317;48.758;9.302;2022-08-11T08:42:07;25.20;66.20
670;DHT22;317;48.758;9.302;2022-08-11T08:44:40;25.30;64.80
670;DHT22;317;48.758;9.302;2022-08-11T08:47:09;25.30;65.40
670;DHT22;317;48.758;9.302;2022-08-11T08:49:43;25.50;65.00
670;DHT22;317;48.758;9.302;2022-08-11T08:52:17;25.60;64.20
670;DHT22;317;48.758;9.302;2022-08-11T08:54:48;25.70;64.30
670;DHT22;317;48.758;9.302;2022-08-11T08:57:20;25.80;63.50
670;DHT22;317;48.758;9.302;2022-08-11T08:59:49;25.90;64.00
670;DHT22;317;48.758;9.302;2022-08-11T09:02:18;25.80;61.80
670;DHT22;317;48.758;9.302;2022-08-11T09:04:47;25.90;61.60
670;DHT22;317;48.758;9.302;2022-08-11T09:07:15;26.00;61.00
670;DHT22;317;48.758;9.302;2022-08-11T09:09:46;26.10;60.80
670;DHT22;317;48.758;9.302;2022-08-11T09:12:13;26.10;60.10
670;DHT22;317;48.758;9.302;2022-08-11T09:14:43;26.20;60.90
670;DHT22;317;48.758;9.302;2022-08-11T09:17:38;26.10;58.70
670;DHT22;317;48.758;9.302;2022-08-11T09:20:07;26.10;58.70
670;DHT22;317;48.758;9.302;2022-08-11T09:22:37;26.10;58.80
670;DHT22;317;48.758;9.302;2022-08-11T09:25:25;26.20;58.90
670;DHT22;317;48.758;9.302;2022-08-11T09:28:11;26.30;57.50
670;DHT22;317;48.758;9.302;2022-08-11T09:30:41;26.40;56.50
670;DHT22;317;48.758;9.302;2022-08-11T09:33:10;26.40;55.70
670;DHT22;317;48.758;9.302;2022-08-11T09:35:37;26.30;55.30
670;DHT22;317;48.758;9.302;2022-08-11T09:38:10;26.40;55.90
670;DHT22;317;48.758;9.302;2022-08-11T09:40:56;26.60;55.40
670;DHT22;317;48.758;9.302;2022-08-11T09:43:25;26.70;55.10
670;DHT22;317;48.758;9.302;2022-08-11T09:46:12;26.80;54.50
670;DHT22;317;48.758;9.302;2022-08-11T09:48:42;26.90;52.80
670;DHT22;317;48.758;9.302;2022-08-11T09:51:12;26.90;53.20
670;DHT22;317;48.758;9.302;2022-08-11T09:53:41;27.00;53.70
670;DHT22;317;48.758;9.302;2022-08-11T09:56:13;27.10;53.00
670;DHT22;317;48.758;9.302;2022-08-11T09:59:00;27.20;53.10
670;DHT22;317;48.758;9.302;2022-08-11T10:01:30;27.30;53.10
670;DHT22;317;48.758;9.302;2022-08-11T10:04:00;27.30;52.10
670;DHT22;317;48.758;9.302;2022-08-11T10:06:30;27.40;52.70
670;DHT22;317;48.758;9.302;2022-08-11T10:09:17;27.40;51.80
670;DHT22;317;48.758;9.302;2022-08-11T10:11:46;27.40;51.20
670;DHT22;317;48.758;9.302;2022-08-11T10:14:16;27.40;52.20
670;DHT22;317;48.758;9.302;2022-08-11T10:17:04;27.50;52.10
670;DHT22;317;48.758;9.302;2022-08-11T10:19:32;27.60;51.40
670;DHT22;317;48.758;9.302;2022-08-11T10:22:00;27.70;51.50
670;DHT22;317;48.758;9.302;2022-08-11T10:24:45;27.80;51.10
670;DHT22;317;48.758;9.302;2022-08-11T10:27:31;27.90;50.30
670;DHT22;317;48.758;9.302;2022-08-11T10:29:58;28.00;49.90
670;DHT22;317;48.758;9.302;2022-08-11T10:32:44;28.10;49.50
670;DHT22;317;48.758;9.302;2022-08-11T10:35:31;28.30;49.00
670;DHT22;317;48.758;9.302;2022-08-11T10:37:58;28.50;48.80
670;DHT22;317;48.758;9.302;2022-08-11T10:40:26;28.60;49.30
670;DHT22;317;48.758;9.302;2022-08-11T10:42:58;28.80;48.00
670;DHT22;317;48.758;9.302;2022-08-11T10:45:28;29.00;48.20
670;DHT22;317;48.758;9.302;2022-08-11T10:48:13;29.20;47.80
670;DHT22;317;48.758;9.302;2022-08-11T10:50:44;29.50;47.80
670;DHT22;317;48.758;9.302;2022-08-11T10:53:29;29.60;46.00
670;DHT22;317;48.758;9.302;2022-08-11T10:56:14;29.60;46.90
670;DHT22;317;48.758;9.302;2022-08-11T10:59:01;29.80;45.50
670;DHT22;317;48.758;9.302;2022-08-11T11:01:31;30.10;45.10
670;DHT22;317;48.758;9.302;2022-08-11T11:04:00;30.30;44.80
670;DHT22;317;48.758;9.302;2022-08-11T11:06:32;30.50;43.80
670;DHT22;317;48.758;9.302;2022-08-11T11:09:03;30.70;43.30
670;DHT22;317;48.758;9.302;2022-08-11T11:11:35;31.00;42.80
670;DHT22;317;48.758;9.302;2022-08-11T11:14:24;31.10;42.50
670;DHT22;317;48.758;9.302;2022-08-11T11:17:11;31.40;42.60
670;DHT22;317;48.758;9.302;2022-08-11T11:19:57;31.70;41.80
670;DHT22;317;48.758;9.302;2022-08-11T11:22:27;31.90;40.50
670;DHT22;317;48.758;9.302;2022-08-11T11:25:16;32.20;40.70
670;DHT22;317;48.758;9.302;2022-08-11T11:28:00;32.50;40.00
670;DHT22;317;48.758;9.302;2022-08-11T11:30:35;32.80;39.80
670;DHT22;317;48.758;9.302;2022-08-11T11:33:07;33.10;38.40
670;DHT22;317;48.758;9.302;2022-08-11T11:35:48;33.30;37.20
670;DHT22;317;48.758;9.302;2022-08-11T11:38:19;33.50;36.30
670;DHT22;317;48.758;9.302;2022-08-11T11:40:47;33.60;36.70
670;DHT22;317;48.758;9.302;2022-08-11T11:43:35;33.80;36.20
670;DHT22;317;48.758;9.302;2022-08-11T11:46:04;33.90;35.30
670;DHT22;317;48.758;9.302;2022-08-11T11:48:33;34.00;35.50
670;DHT22;317;48.758;9.302;2022-08-11T11:51:01;34.20;35.10
670;DHT22;317;48.758;9.302;2022-08-11T11:53:28;34.10;33.60
670;DHT22;317;48.758;9.302;2022-08-11T11:55:56;34.20;33.50
670;DHT22;317;48.758;9.302;2022-08-11T11:58:25;34.40;34.10
670;DHT22;317;48.758;9.302;2022-08-11T12:01:12;34.70;33.80
670;DHT22;317;48.758;9.302;2022-08-11T12:03:45;35.00;33.50
670;DHT22;317;48.758;9.302;2022-08-11T12:06:13;35.20;33.20
670;DHT22;317;48.758;9.302;2022-08-11T12:08:41;35.50;32.80
670;DHT22;317;48.758;9.302;2022-08-11T12:11:10;35.80;32.70
670;DHT22;317;48.758;9.302;2022-08-11T12:13:58;36.10;31.20
670;DHT22;317;48.758;9.302;2022-08-11T12:16:27;36.40;31.50
670;DHT22;317;48.758;9.302;2022-08-11T12:18:57;36.60;30.80
670;DHT22;317;48.758;9.302;2022-08-11T12:21:25;36.80;30.40
670;DHT22;317;48.758;9.302;2022-08-11T12:23:54;36.90;29.60
670;DHT22;317;48.758;9.302;2022-08-11T12:26:39;37.00;29.40
670;DHT22;317;48.758;9.302;2022-08-11T12:29:25;37.20;29.70
670;DHT22;317;48.758;9.302;2022-08-11T12:31:54;37.30;29.30
670;DHT22;317;48.758;9.302;2022-08-11T12:34:25;37.60;29.20
670;DHT22;317;48.758;9.302;2022-08-11T12:36:56;37.80;28.90
670;DHT22;317;48.758;9.302;2022-08-11T12:39:24;37.70;28.40
670;DHT22;317;48.758;9.302;2022-08-11T12:42:07;37.90;28.50
670;DHT22;317;48.758;9.302;2022-08-11T12:44:54;38.20;28.30
670;DHT22;317;48.758;9.302;2022-08-11T12:47:43;38.40;27.50
670;DHT22;317;48.758;9.302;2022-08-11T12:50:26;38.60;28.20
670;DHT22;317;48.758;9.302;2022-08-11T12:53:11;38.80;27.20
670;DHT22;317;48.758;9.302;2022-08-11T12:55:39;39.00;27.10
670;DHT22;317;48.758;9.302;2022-08-11T12:58:26;39.20;26.80
670;DHT22;317;48.758;9.302;2022-08-11T13:00:53;39.40;27.00
670;DHT22;317;48.758;9.302;2022-08-11T13:03:41;39.60;26.30
670;DHT22;317;48.758;9.302;2022-08-11T13:06:25;39.70;26.50
670;DHT22;317;48.758;9.302;2022-08-11T13:08:54;40.00;26.60
670;DHT22;317;48.758;9.302;2022-08-11T13:11:23;40.00;25.90
670;DHT22;317;48.758;9.302;2022-08-11T13:14:07;39.30;25.90
670;DHT22;317;48.758;9.302;2022-08-11T13:16:36;38.70;26.30
670;DHT22;317;48.758;9.302;2022-08-11T13:19:19;38.30;25.90
670;DHT22;317;48.758;9.302;2022-08-11T13:21:47;38.60;26.20
670;DHT22;317;48.758;9.302;2022-08-11T13:24:14;39.20;26.40
670;DHT22;317;48.758;9.302;2022-08-11T13:26:43;39.60;25.90
670;DHT22;317;48.758;9.302;2022-08-11T13:29:10;39.80;25.50
670;DHT22;317;48.758;9.302;2022-08-11T13:31:39;40.20;25.40
670;DHT22;317;48.758;9.302;2022-08-11T13:34:08;40.50;25.10
670;DHT22;317;48.758;9.302;2022-08-11T13:36:37;40.70;25.60
670;DHT22;317;48.758;9.302;2022-08-11T13:39:04;41.10;24.80
670;DHT22;317;48.758;9.302;2022-08-11T13:41:31;40.70;24.20
670;DHT22;317;48.758;9.302;2022-08-11T13:44:06;40.80;24.80
670;DHT22;317;48.758;9.302;2022-08-11T13:46:33;40.70;24.20
670;DHT22;317;48.758;9.302;2022-08-11T13:49:01;40.90;24.50
670;DHT22;317;48.758;9.302;2022-08-11T13:51:29;40.90;24.00
670;DHT22;317;48.758;9.302;2022-08-11T13:54:02;41.30;24.30
670;DHT22;317;48.758;9.302;2022-08-11T13:56:31;41.50;23.80
670;DHT22;317;48.758;9.302;2022-08-11T13:59:00;41.20;23.60
670;DHT22;317;48.758;9.302;2022-08-11T14:01:30;41.40;24.10
670;DHT22;317;48.758;9.302;2022-08-11T14:04:04;41.70;23.90
670;DHT22;317;48.758;9.302;2022-08-11T14:06:31;41.80;23.80
670;DHT22;317;48.758;9.302;2022-08-11T14:09:02;41.90;23.50
670;DHT22;317;48.758;9.302;2022-08-11T14:11:30;41.90;23.40
670;DHT22;317;48.758;9.302;2022-08-11T14:14:20;41.90;23.30
670;DHT22;317;48.758;9.302;2022-08-11T14:16:48;42.10;23.20
670;DHT22;317;48.758;9.302;2022-08-11T14:19:19;42.00;23.10
670;DHT22;317;48.758;9.302;2022-08-11T14:21:47;42.30;23.10
670;DHT22;317;48.758;9.302;2022-08-11T14:24:39;42.40;23.00
670;DHT22;317;48.758;9.302;2022-08-11T14:27:08;42.50;22.60
670;DHT22;317;48.758;9.302;2022-08-11T14:29:38;42.70;22.60
670;DHT22;317;48.758;9.302;2022-08-11T14:32:08;42.70;22.40
670;DHT22;317;48.758;9.302;2022-08-11T14:34:39;42.60;22.00
670;DHT22;317;48.758;9.302;2022-08-11T14:37:09;42.80;22.10
670;DHT22;317;48.758;9.302;2022-08-11T14:39:41;42.90;21.80
670;DHT22;317;48.758;9.302;2022-08-11T14:42:09;42.60;21.90
670;DHT22;317;48.758;9.302;2022-08-11T14:44:57;42.90;22.00
670;DHT22;317;48.758;9.302;2022-08-11T14:47:56;43.00;21.60
670;DHT22;317;48.758;9.302;2022-08-11T14:50:26;43.30;21.50
670;DHT22;317;48.758;9.302;2022-08-11T14:52:55;43.20;21.30
670;DHT22;317;48.758;9.302;2022-08-11T14:55:27;43.00;21.60
670;DHT22;317;48.758;9.302;2022-08-11T14:58:16;43.30;21.40
670;DHT22;317;48.758;9.302;2022-08-11T15:00:43;43.20;21.30
670;DHT22;317;48.758;9.302;2022-08-11T15:03:12;43.20;21.40
670;DHT22;317;48.758;9.302;2022-08-11T15:05:43;43.20;21.40
670;DHT22;317;48.758;9.302;2022-08-11T15:08:13;43.30;21.50
670;DHT22;317;48.758;9.302;2022-08-11T15:10:42;43.30;21.20
670;DHT22;317;48.758;9.302;2022-08-11T15:13:09;43.40;21.50
670;DHT22;317;48.758;9.302;2022-08-11T15:15:38;43.40;21.10
670;DHT22;317;48.758;9.302;2022-08-11T15:18:25;43.30;21.50
670;DHT22;317;48.758;9.302;2022-08-11T15:20:52;43.20;21.70
670;DHT22;317;48.758;9.302;2022-08-11T15:23:38;43.00;20.70
670;DHT22;317;48.758;9.302;2022-08-11T15:26:31;43.20;21.10
670;DHT22;317;48.758;9.302;2022-08-11T15:29:19;43.10;21.10
670;DHT22;317;48.758;9.302;2022-08-11T15:32:08;42.80;20.90
670;DHT22;317;48.758;9.302;2022-08-11T15:34:56;42.70;21.40
670;DHT22;317;48.758;9.302;2022-08-11T15:37:42;42.90;21.30
670;DHT22;317;48.758;9.302;2022-08-11T15:40:15;43.20;21.10
670;DHT22;317;48.758;9.302;2022-08-11T15:43:07;42.80;20.40
670;DHT22;317;48.758;9.302;2022-08-11T15:46:02;43.00;20.90
670;DHT22;317;48.758;9.302;2022-08-11T15:48:40;42.50;20.90
670;DHT22;317;48.758;9.302;2022-08-11T15:51:16;42.60;20.90
670;DHT22;317;48.758;9.302;2022-08-11T15:53:51;42.80;21.00
670;DHT22;317;48.758;9.302;2022-08-11T15:56:20;42.90;21.20
670;DHT22;317;48.758;9.302;2022-08-11T15:58:51;43.00;21.30
670;DHT22;317;48.758;9.302;2022-08-11T16:01:37;43.00;20.70
670;DHT22;317;48.758;9.302;2022-08-11T16:04:24;43.00;21.00
670;DHT22;317;48.758;9.302;2022-08-11T16:06:55;42.90;20.90
670;DHT22;317;48.758;9.302;2022-08-11T16:09:29;42.80;21.20
670;DHT22;317;48.758;9.302;2022-08-11T16:12:01;42.40;20.80
670;DHT22;317;48.758;9.302;2022-08-11T16:14:32;42.20;21.10
670;DHT22;317;48.758;9.302;2022-08-11T16:17:18;41.80;21.00
670;DHT22;317;48.758;9.302;2022-08-11T16:19:48;41.50;21.30
670;DHT22;317;48.758;9.302;2022-08-11T16:22:22;41.50;21.80
670;DHT22;317;48.758;9.302;2022-08-11T16:24:59;41.50;21.60
670;DHT22;317;48.758;9.302;2022-08-11T16:27:26;41.30;21.50
670;DHT22;317;48.758;9.302;2022-08-11T16:29:56;41.30;21.60
670;DHT22;317;48.758;9.302;2022-08-11T16:32:24;40.90;21.40
670;DHT22;317;48.758;9.302;2022-08-11T16:34:55;40.80;21.40
670;DHT22;317;48.758;9.302;2022-08-11T16:37:40;40.90;21.60
670;DHT22;317;48.758;9.302;2022-08-11T16:40:27;40.70;21.50
670;DHT22;317;48.758;9.302;2022-08-11T16:42:55;40.40;21.90
670;DHT22;317;48.758;9.302;2022-08-11T16:45:43;40.30;21.70
670;DHT22;317;48.758;9.302;2022-08-11T16:48:41;40.20;21.80
670;DHT22;317;48.758;9.302;2022-08-11T16:51:11;39.70;22.20
670;DHT22;317;48.758;9.302;2022-08-11T16:53:42;39.50;22.00
670;DHT22;317;48.758;9.302;2022-08-11T16:56:11;39.10;22.30
670;DHT22;317;48.758;9.302;2022-08-11T16:58:43;39.00;22.00
670;DHT22;317;48.758;9.302;2022-08-11T17:01:32;38.90;22.20
670;DHT22;317;48.758;9.302;2022-08-11T17:04:07;38.50;22.50
670;DHT22;317;48.758;9.302;2022-08-11T17:06:52;38.60;22.50
670;DHT22;317;48.758;9.302;2022-08-11T17:09:38;38.60;22.40
670;DHT22;317;48.758;9.302;2022-08-11T17:12:25;38.50;22.60
670;DHT22;317;48.758;9.302;2022-08-11T17:15:14;38.50;22.80
670;DHT22;317;48.758;9.302;2022-08-11T17:18:02;38.60;22.90
670;DHT22;317;48.758;9.302;2022-08-11T17:20:33;38.50;23.00
670;DHT22;317;48.758;9.302;2022-08-11T17:23:01;38.50;22.40
670;DHT22;317;48.758;9.302;2022-08-11T17:25:48;38.30;22.60
670;DHT22;317;48.758;9.302;2022-08-11T17:28:16;38.20;22.70
670;DHT22;317;48.758;9.302;2022-08-11T17:30:44;38.10;23.00
670;DHT22;317;48.758;9.302;2022-08-11T17:33:32;37.60;23.10
670;DHT22;317;48.758;9.302;2022-08-11T17:36:19;37.30;23.10
670;DHT22;317;48.758;9.302;2022-08-11T17:38:50;37.20;23.10
670;DHT22;317;48.758;9.302;2022-08-11T17:41:19;37.30;23.10
670;DHT22;317;48.758;9.302;2022-08-11T17:44:04;37.10;22.90
670;DHT22;317;48.758;9.302;2022-08-11T17:46:49;36.90;23.30
670;DHT22;317;48.758;9.302;2022-08-11T17:49:37;36.70;23.40
670;DHT22;317;48.758;9.302;2022-08-11T17:52:06;36.70;23.10
670;DHT22;317;48.758;9.302;2022-08-11T17:54:51;36.60;23.30
670;DHT22;317;48.758;9.302;2022-08-11T17:57:37;36.40;23.60
670;DHT22;317;48.758;9.302;2022-08-11T18:00:23;36.00;23.90
670;DHT22;317;48.758;9.302;2022-08-11T18:02:52;35.40;24.30
670;DHT22;317;48.758;9.302;2022-08-11T18:05:41;35.00;24.30
670;DHT22;317;48.758;9.302;2022-08-11T18:08:11;34.60;24.40
670;DHT22;317;48.758;9.302;2022-08-11T18:10:57;34.20;24.70
670;DHT22;317;48.758;9.302;2022-08-11T18:13:43;33.70;25.10
670;DHT22;317;48.758;9.302;2022-08-11T18:16:28;33.20;25.40
670;DHT22;317;48.758;9.302;2022-08-11T18:19:13;32.70;25.60
670;DHT22;317;48.758;9.302;2022-08-11T18:22:02;32.10;26.00
670;DHT22;317;48.758;9.302;2022-08-11T18:24:52;31.60;26.80
670;DHT22;317;48.758;9.302;2022-08-11T18:27:41;31.10;27.40